Map

Track Data

SID SEASON NUMBER BASIN SUBBASIN NAME ISO_TIME NATURE LAT LON WMO_WIND WMO_PRES WMO_AGENCY TRACK_TYPE DIST2LAND LANDFALL IFLAG USA_AGENCY USA_ATCF_ID USA_LAT USA_LON USA_RECORD USA_STATUS USA_WIND USA_PRES USA_SSHS USA_R34_NE USA_R34_SE USA_R34_SW USA_R34_NW USA_R50_NE USA_R50_SE USA_R50_SW USA_R50_NW USA_R64_NE USA_R64_SE USA_R64_SW USA_R64_NW USA_POCI USA_ROCI USA_RMW USA_EYE TOKYO_LAT TOKYO_LON TOKYO_GRADE TOKYO_WIND TOKYO_PRES TOKYO_R50_DIR TOKYO_R50_LONG TOKYO_R50_SHORT TOKYO_R30_DIR TOKYO_R30_LONG TOKYO_R30_SHORT TOKYO_LAND CMA_LAT CMA_LON CMA_CAT CMA_WIND CMA_PRES HKO_LAT HKO_LON HKO_CAT HKO_WIND HKO_PRES NEWDELHI_LAT NEWDELHI_LON NEWDELHI_GRADE NEWDELHI_WIND NEWDELHI_PRES NEWDELHI_CI NEWDELHI_DP NEWDELHI_POCI REUNION_LAT REUNION_LON REUNION_TYPE REUNION_WIND REUNION_PRES REUNION_TNUM REUNION_CI REUNION_RMW REUNION_R34_NE REUNION_R34_SE REUNION_R34_SW REUNION_R34_NW REUNION_R50_NE REUNION_R50_SE REUNION_R50_SW REUNION_R50_NW REUNION_R64_NE REUNION_R64_SE REUNION_R64_SW REUNION_R64_NW BOM_LAT BOM_LON BOM_TYPE BOM_WIND BOM_PRES BOM_TNUM BOM_CI BOM_RMW BOM_R34_NE BOM_R34_SE BOM_R34_SW BOM_R34_NW BOM_R50_NE BOM_R50_SE BOM_R50_SW BOM_R50_NW BOM_R64_NE BOM_R64_SE BOM_R64_SW BOM_R64_NW BOM_ROCI BOM_POCI BOM_EYE BOM_POS_METHOD BOM_PRES_METHOD NADI_LAT NADI_LON NADI_CAT NADI_WIND NADI_PRES WELLINGTON_LAT WELLINGTON_LON WELLINGTON_WIND WELLINGTON_PRES DS824_LAT DS824_LON DS824_STAGE DS824_WIND DS824_PRES TD9636_LAT TD9636_LON TD9636_STAGE TD9636_WIND TD9636_PRES TD9635_LAT TD9635_LON TD9635_WIND TD9635_PRES TD9635_ROCI NEUMANN_LAT NEUMANN_LON NEUMANN_CLASS NEUMANN_WIND NEUMANN_PRES MLC_LAT MLC_LON MLC_CLASS MLC_WIND MLC_PRES USA_GUST BOM_GUST BOM_GUST_PER REUNION_GUST REUNION_GUST_PER USA_SEAHGT USA_SEARAD_NE USA_SEARAD_SE USA_SEARAD_SW USA_SEARAD_NW STORM_SPEED STORM_DIR
1917263N13303 1917 42 NA NA NOT_NAMED 1917-09-20 00:00:00 TS 13.4000 -57.1000 40 hurdat_atl main 521 476 O_____________ hurdat_atl AL041917 13.4000 -57.1000 TS 40 0 12 284
1917263N13303 1917 42 NA NA NOT_NAMED 1917-09-20 03:00:00 TS 13.5503 -57.6999 main 484 446 P_____________ AL041917 13.5503 -57.6999 TS 40 0 12 284
1917263N13303 1917 42 NA NA NOT_NAMED 1917-09-20 06:00:00 TS 13.7000 -58.3000 40 hurdat_atl main 446 415 O_____________ hurdat_atl AL041917 13.7000 -58.3000 TS 40 0 12 284
1917263N13303 1917 42 NA NA NOT_NAMED 1917-09-20 09:00:00 TS 13.8499 -58.9001 main 415 403 P_____________ AL041917 13.8499 -58.9001 TS 40 0 12 284
1917263N13303 1917 42 NA CS NOT_NAMED 1917-09-20 12:00:00 TS 14.0000 -59.5000 40 hurdat_atl main 403 393 O_____________ hurdat_atl AL041917 14.0000 -59.5000 TS 40 0 12 284
1917263N13303 1917 42 NA CS NOT_NAMED 1917-09-20 15:00:00 TS 14.1424 -60.1001 main 393 393 P_____________ AL041917 14.1424 -60.1001 TS 42 0 12 284
1917263N13303 1917 42 NA CS NOT_NAMED 1917-09-20 18:00:00 TS 14.3000 -60.7000 45 hurdat_atl main 404 403 O_____________ hurdat_atl AL041917 14.3000 -60.7000 TS 45 0 12 287
1917263N13303 1917 42 NA CS NOT_NAMED 1917-09-20 21:00:00 TS 14.4923 -61.3001 main 425 425 P_____________ AL041917 14.4923 -61.3001 TS 47 0 12 289
1917263N13303 1917 42 NA CS NOT_NAMED 1917-09-21 00:00:00 TS 14.7000 -61.9000 50 hurdat_atl main 448 448 O_____________ hurdat_atl AL041917 14.7000 -61.9000 TS 50 0 12 289
1917263N13303 1917 42 NA CS NOT_NAMED 1917-09-21 03:00:00 TS 14.8998 -62.4926 main 470 433 P_____________ AL041917 14.8998 -62.4926 TS 52 0 12 289
1917263N13303 1917 42 NA CS NOT_NAMED 1917-09-21 06:00:00 TS 15.1000 -63.1000 55 hurdat_atl main 433 375 O_____________ hurdat_atl AL041917 15.1000 -63.1000 TS 55 0 12 289
1917263N13303 1917 42 NA CS NOT_NAMED 1917-09-21 09:00:00 TS 15.3071 -63.7126 main 375 317 P_____________ AL041917 15.3071 -63.7126 TS 57 0 13 288
1917263N13303 1917 42 NA CS NOT_NAMED 1917-09-21 12:00:00 TS 15.5000 -64.4000 60 hurdat_atl main 317 276 O_____________ hurdat_atl AL041917 15.5000 -64.4000 TS 60 0 15 283
1917263N13303 1917 42 NA CS NOT_NAMED 1917-09-21 15:00:00 TS 15.6499 -65.2128 main 276 235 P_____________ AL041917 15.6499 -65.2128 TS 62 0 17 280
1917263N13303 1917 42 NA CS NOT_NAMED 1917-09-21 18:00:00 TS 15.8000 -66.1000 65 hurdat_atl main 235 212 O_____________ hurdat_atl AL041917 15.8000 -66.1000 HU 65 1 17 282
1917263N13303 1917 42 NA CS NOT_NAMED 1917-09-21 21:00:00 TS 15.9995 -66.9775 main 212 197 P_____________ AL041917 15.9995 -66.9775 HU 67 1 18 283
1917263N13303 1917 42 NA CS NOT_NAMED 1917-09-22 00:00:00 TS 16.2000 -67.9000 70 hurdat_atl main 204 204 O_____________ hurdat_atl AL041917 16.2000 -67.9000 HU 70 1 19 281
1917263N13303 1917 42 NA CS NOT_NAMED 1917-09-22 03:00:00 TS 16.3500 -68.9078 main 201 194 P_____________ AL041917 16.3500 -68.9078 HU 72 1 19 279
1917263N13303 1917 42 NA CS NOT_NAMED 1917-09-22 06:00:00 TS 16.5000 -69.9000 75 hurdat_atl main 192 125 O_____________ hurdat_atl AL041917 16.5000 -69.9000 HU 75 1 18 281
1917263N13303 1917 42 NA CS NOT_NAMED 1917-09-22 09:00:00 TS 16.6920 -70.7876 main 119 78 P_____________ AL041917 16.6920 -70.7876 HU 77 1 17 284
1917263N13303 1917 42 NA CS NOT_NAMED 1917-09-22 12:00:00 TS 16.9000 -71.6000 80 hurdat_atl main 81 79 O_____________ hurdat_atl AL041917 16.9000 -71.6000 HU 80 1 16 285
1917263N13303 1917 42 NA CS NOT_NAMED 1917-09-22 15:00:00 TS 17.0996 -72.3727 main 115 90 P_____________ AL041917 17.0996 -72.3727 HU 82 1 15 286
1917263N13303 1917 42 NA CS NOT_NAMED 1917-09-22 18:00:00 TS 17.3000 -73.1000 85 hurdat_atl main 94 55 O_____________ hurdat_atl AL041917 17.3000 -73.1000 HU 85 2 14 286
1917263N13303 1917 42 NA CS NOT_NAMED 1917-09-22 21:00:00 TS 17.4997 -73.8077 main 55 45 P_____________ AL041917 17.4997 -73.8077 HU 85 2 14 287
1917263N13303 1917 42 NA CS NOT_NAMED 1917-09-23 00:00:00 TS 17.7000 -74.5000 85 hurdat_atl main 67 64 O_____________ hurdat_atl AL041917 17.7000 -74.5000 HU 85 2 14 287
1917263N13303 1917 42 NA CS NOT_NAMED 1917-09-23 03:00:00 TS 17.9073 -75.2075 main 92 38 P_____________ AL041917 17.9073 -75.2075 HU 87 2 14 287
1917263N13303 1917 42 NA CS NOT_NAMED 1917-09-23 06:00:00 TS 18.1000 -75.9000 90 hurdat_atl main 38 0 O_____________ hurdat_atl AL041917 18.1000 -75.9000 HU 90 2 14 285
1917263N13303 1917 42 NA CS NOT_NAMED 1917-09-23 09:00:00 TS 18.2499 -76.5802 main 0 0 P_____________ AL041917 18.2499 -76.5802 HU 90 2 13 284
1917263N13303 1917 42 NA CS NOT_NAMED 1917-09-23 12:00:00 TS 18.4000 -77.2000 90 hurdat_atl main 0 0 O_____________ hurdat_atl AL041917 18.4000 -77.2000 HU 90 2 12 287
1917263N13303 1917 42 NA CS NOT_NAMED 1917-09-23 15:00:00 TS 18.5923 -77.7375 main 22 22 P_____________ AL041917 18.5923 -77.7375 HU 92 2 10 293
1917263N13303 1917 42 NA CS NOT_NAMED 1917-09-23 18:00:00 TS 18.8000 -78.2000 95 hurdat_atl main 44 44 O_____________ hurdat_atl AL041917 18.8000 -78.2000 HU 95 2 9 296
1917263N13303 1917 42 NA CS NOT_NAMED 1917-09-23 21:00:00 TS 18.9999 -78.6301 main 74 74 P_____________ AL041917 18.9999 -78.6301 HU 95 2 9 298
1917263N13303 1917 42 NA CS NOT_NAMED 1917-09-24 00:00:00 TS 19.2000 -79.0000 95 hurdat_atl main 115 115 O_____________ hurdat_atl AL041917 19.2000 -79.0000 HU 95 2 8 301
1917263N13303 1917 42 NA CS NOT_NAMED 1917-09-24 03:00:00 TS 19.3924 -79.3152 main 153 153 P_____________ AL041917 19.3924 -79.3152 HU 97 3 7 305
1917263N13303 1917 42 NA CS NOT_NAMED 1917-09-24 06:00:00 TS 19.6000 -79.6000 100 hurdat_atl main 191 190 O_____________ hurdat_atl AL041917 19.6000 -79.6000 HU 100 3 7 309
1917263N13303 1917 42 NA CS NOT_NAMED 1917-09-24 09:00:00 TS 19.8425 -79.9000 main 198 178 P_____________ AL041917 19.8425 -79.9000 HU 100 3 8 312
1917263N13303 1917 42 NA CS NOT_NAMED 1917-09-24 12:00:00 TS 20.1000 -80.2000 100 hurdat_atl main 180 161 O_____________ hurdat_atl AL041917 20.1000 -80.2000 HU 100 3 8 312
1917263N13303 1917 42 NA CS NOT_NAMED 1917-09-24 15:00:00 TS 20.3575 -80.5075 main 154 147 P_____________ AL041917 20.3575 -80.5075 HU 102 3 8 312
1917263N13303 1917 42 NA CS NOT_NAMED 1917-09-24 18:00:00 TS 20.6000 -80.8000 105 hurdat_atl main 148 135 O_____________ hurdat_atl AL041917 20.6000 -80.8000 HU 105 3 7 312
1917263N13303 1917 42 NA CS NOT_NAMED 1917-09-24 21:00:00 TS 20.8074 -81.0502 main 134 111 P_____________ AL041917 20.8074 -81.0502 HU 107 3 6 311
1917263N13303 1917 42 NA CS NOT_NAMED 1917-09-25 00:00:00 TS 21.0000 -81.3000 110 hurdat_atl main 112 94 O_____________ hurdat_atl AL041917 21.0000 -81.3000 HU 110 3 6 308
1917263N13303 1917 42 NA CS NOT_NAMED 1917-09-25 03:00:00 TS 21.2000 -81.5926 main 98 65 P_____________ AL041917 21.2000 -81.5926 HU 115 4 7 306
1917263N13303 1917 42 NA CS NOT_NAMED 1917-09-25 06:00:00 TS 21.4000 -81.9000 120 hurdat_atl main 65 31 O_____________ hurdat_atl AL041917 21.4000 -81.9000 HU 120 4 7 305
1917263N13303 1917 42 NA CS NOT_NAMED 1917-09-25 09:00:00 TS 21.5924 -82.1927 main 31 15 P_____________ AL041917 21.5924 -82.1927 HU 125 4 7 306
1917263N13303 1917 42 NA CS NOT_NAMED 1917-09-25 12:00:00 TS 21.8000 -82.5000 130 928 hurdat_atl main 15 10 O_____________ hurdat_atl AL041917 21.8000 -82.5000 HU 130 928 4 8 307
1917263N13303 1917 42 NA CS NOT_NAMED 1917-09-25 15:00:00 TS 22.0425 -82.8425 main 22 10 P_____________ AL041917 22.0425 -82.8425 HU 130 4 8 308
1917263N13303 1917 42 NA CS NOT_NAMED 1917-09-25 18:00:00 TS 22.3000 -83.2000 130 hurdat_atl main 10 0 O_____________ hurdat_atl AL041917 22.3000 -83.2000 HU 130 4 8 308
1917263N13303 1917 42 NA NA NOT_NAMED 1917-09-25 21:00:00 TS 22.5499 -83.5501 main 0 0 P_____________ AL041917 22.5499 -83.5501 HU 125 4 8 308
1917263N13303 1917 42 NA GM NOT_NAMED 1917-09-26 00:00:00 TS 22.8000 -83.9000 120 hurdat_atl main 11 11 O_____________ hurdat_atl AL041917 22.8000 -83.9000 HU 120 4 8 307
1917263N13303 1917 42 NA GM NOT_NAMED 1917-09-26 03:00:00 TS 23.0425 -84.2576 main 45 45 P_____________ AL041917 23.0425 -84.2576 HU 120 4 8 308
1917263N13303 1917 42 NA GM NOT_NAMED 1917-09-26 06:00:00 TS 23.3000 -84.6000 120 hurdat_atl main 90 90 O_____________ hurdat_atl AL041917 23.3000 -84.6000 HU 120 4 8 314
1917263N13303 1917 42 NA GM NOT_NAMED 1917-09-26 09:00:00 TS 23.5998 -84.8927 main 136 136 P_____________ AL041917 23.5998 -84.8927 HU 120 4 8 318
1917263N13303 1917 42 NA GM NOT_NAMED 1917-09-26 12:00:00 TS 23.9000 -85.2000 120 hurdat_atl main 181 181 O_____________ hurdat_atl AL041917 23.9000 -85.2000 HU 120 4 8 313
1917263N13303 1917 42 NA GM NOT_NAMED 1917-09-26 15:00:00 TS 24.1724 -85.5700 main 233 233 P_____________ AL041917 24.1724 -85.5700 HU 120 4 9 304
1917263N13303 1917 42 NA GM NOT_NAMED 1917-09-26 18:00:00 TS 24.4000 -86.0000 120 hurdat_atl main 278 278 O_____________ hurdat_atl AL041917 24.4000 -86.0000 HU 120 4 9 295
1917263N13303 1917 42 NA GM NOT_NAMED 1917-09-26 21:00:00 TS 24.5574 -86.4778 main 331 331 P_____________ AL041917 24.5574 -86.4778 HU 117 4 10 288
1917263N13303 1917 42 NA GM NOT_NAMED 1917-09-27 00:00:00 TS 24.7000 -87.0000 115 hurdat_atl main 357 357 O_____________ hurdat_atl AL041917 24.7000 -87.0000 HU 115 4 10 288
1917263N13303 1917 42 NA GM NOT_NAMED 1917-09-27 03:00:00 TS 24.8776 -87.5651 main 380 380 P_____________ AL041917 24.8776 -87.5651 HU 115 4 11 292
1917263N13303 1917 42 NA GM NOT_NAMED 1917-09-27 06:00:00 TS 25.1000 -88.1000 115 hurdat_atl main 402 402 O_____________ hurdat_atl AL041917 25.1000 -88.1000 HU 115 4 10 299
1917263N13303 1917 42 NA GM NOT_NAMED 1917-09-27 09:00:00 TS 25.3849 -88.5599 main 405 369 P_____________ AL041917 25.3849 -88.5599 HU 112 3 9 310
1917263N13303 1917 42 NA GM NOT_NAMED 1917-09-27 12:00:00 TS 25.7000 -88.9000 110 hurdat_atl main 369 335 O_____________ hurdat_atl AL041917 25.7000 -88.9000 HU 110 3 8 321
1917263N13303 1917 42 NA GM NOT_NAMED 1917-09-27 15:00:00 TS 25.9848 -89.0953 main 335 301 P_____________ AL041917 25.9848 -89.0953 HU 110 3 7 336
1917263N13303 1917 42 NA GM NOT_NAMED 1917-09-27 18:00:00 TS 26.3000 -89.2000 110 hurdat_atl main 301 257 O_____________ hurdat_atl AL041917 26.3000 -89.2000 HU 110 3 7 342
1917263N13303 1917 42 NA GM NOT_NAMED 1917-09-27 21:00:00 TS 26.6775 -89.3373 main 257 214 P_____________ AL041917 26.6775 -89.3373 HU 107 3 8 347
1917263N13303 1917 42 NA GM NOT_NAMED 1917-09-28 00:00:00 TS 27.1000 -89.4000 105 hurdat_atl main 214 170 O_____________ hurdat_atl AL041917 27.1000 -89.4000 HU 105 3 9 0
1917263N13303 1917 42 NA GM NOT_NAMED 1917-09-28 03:00:00 TS 27.5500 -89.3451 main 168 112 P_____________ AL041917 27.5500 -89.3451 HU 105 3 9 11
1917263N13303 1917 42 NA GM NOT_NAMED 1917-09-28 06:00:00 TS 28.0000 -89.2000 105 hurdat_atl main 112 66 O_____________ hurdat_atl AL041917 28.0000 -89.2000 HU 105 3 9 17
1917263N13303 1917 42 NA GM NOT_NAMED 1917-09-28 09:00:00 TS 28.4148 -89.0521 main 66 36 P_____________ AL041917 28.4148 -89.0521 HU 105 3 9 24
1917263N13303 1917 42 NA GM NOT_NAMED 1917-09-28 12:00:00 TS 28.8000 -88.8000 105 hurdat_atl main 36 36 O_____________ hurdat_atl AL041917 28.8000 -88.8000 HU 105 3 9 38
1917263N13303 1917 42 NA GM NOT_NAMED 1917-09-28 15:00:00 TS 29.1576 -88.3949 main 59 59 P_____________ AL041917 29.1576 -88.3949 HU 102 3 11 48
1917263N13303 1917 42 NA GM NOT_NAMED 1917-09-28 18:00:00 TS 29.5000 -87.9000 100 hurdat_atl main 78 55 O_____________ hurdat_atl AL041917 29.5000 -87.9000 HU 100 3 11 51
1917263N13303 1917 42 NA GM NOT_NAMED 1917-09-28 21:00:00 TS 29.8616 -87.3948 main 44 22 P_____________ AL041917 29.8616 -87.3948 HU 100 3 11 51
1917263N13303 1917 42 NA GM NOT_NAMED 1917-09-29 00:00:00 TS 30.2000 -86.9000 100 949 hurdat_atl main 22 0 O_____________ hurdat_atl AL041917 30.2000 -86.9000 HU 100 949 3 10 52
1917263N13303 1917 42 NA GM NOT_NAMED 1917-09-29 02:00:00 TS 30.4000 -86.6000 100 949 hurdat_atl main 0 0 O_____________ hurdat_atl AL041917 30.4000 -86.6000 L HU 100 949 3 10 51
1917263N13303 1917 42 NA GM NOT_NAMED 1917-09-29 03:00:00 TS 30.5176 -86.4482 main 0 0 P_____________ AL041917 30.5176 -86.4482 HU 93 2 11 46
1917263N13303 1917 42 NA NA NOT_NAMED 1917-09-29 06:00:00 TS 30.9000 -86.0000 75 hurdat_atl main 0 0 O_____________ hurdat_atl AL041917 30.9000 -86.0000 HU 75 1 10 46
1917263N13303 1917 42 NA NA NOT_NAMED 1917-09-29 09:00:00 TS 31.2277 -85.5906 main 0 0 P_____________ AL041917 31.2277 -85.5906 HU 65 1 9 49
1917263N13303 1917 42 NA NA NOT_NAMED 1917-09-29 12:00:00 TS 31.5000 -85.2000 55 hurdat_atl main 0 0 O_____________ hurdat_atl AL041917 31.5000 -85.2000 TS 55 0 8 52
1917263N13303 1917 42 NA NA NOT_NAMED 1917-09-29 15:00:00 TS 31.7370 -84.8298 main 0 0 P_____________ AL041917 31.7370 -84.8298 TS 47 0 8 60
1917263N13303 1917 42 NA NA NOT_NAMED 1917-09-29 18:00:00 TS 31.9000 -84.4000 40 hurdat_atl main 0 0 O_____________ hurdat_atl AL041917 31.9000 -84.4000 TS 40 0 9 75
1917263N13303 1917 42 NA NA NOT_NAMED 1917-09-29 21:00:00 TS 31.9805 -83.7923 main 0 0 P_____________ AL041917 31.9805 -83.7923 TS 37 0 10 84
1917263N13303 1917 42 NA NA NOT_NAMED 1917-09-30 00:00:00 TS 32.0000 -83.2000 35 hurdat_atl main 0 0 O_____________ hurdat_atl AL041917 32.0000 -83.2000 TS 35 0 8 89
1917263N13303 1917 42 NA NA NOT_NAMED 1917-09-30 03:00:00 TS 32.0022 -82.7901 main 0 0 P_____________ AL041917 32.0022 -82.7901 TS 32 -1 6 90
1917263N13303 1917 42 NA NA NOT_NAMED 1917-09-30 06:00:00 ET 32.0000 -82.5000 30 hurdat_atl main 0 O_____________ hurdat_atl AL041917 32.0000 -82.5000 EX 30 -4 5 90

About IBTrACS Database

This database is a web-friendly format of International Best Track Archive for Climate Stewardship (IBTrACS), a global best track data archive curated by NOAA dating back to 1842.

Updated: 2021-10-25